LHSM/SOB METAR and TAF weather

Enter ICAO airport designator
Station Type Date Time Source
LHSM METAR 2019/08/25 13:15 UTC NOAA

LHSM 251315Z AUTO 08007KT 030V140 9000 FEW174 //////TCU 27/20 Q1019 BECMG SCT030CB BKN200


Station Type Date Time Source
LHSM Decoded METAR 2019/08/25 13:15 UTC NOAA

Station name not available
Aug 25, 2019 - 09:15 AM EDT / 2019.08.25 1315 UTC
Wind: from the E (080 degrees) at 8 MPH (7 KT) (direction variable):0
Visibility: 5 mile(s):0
Sky conditions: mostly clear
Weather: Cumulonimbus clouds, towering cumulus clouds observed
Temperature: 80 F (27 C)
Dew Point: 68 F (20 C)
Relative Humidity: 65%
Pressure (altimeter): 30.09 in. Hg (1019 hPa)
ob: LHSM 251315Z AUTO 08007KT 030V140 9000 FEW174 //////TCU 27/20 Q1019 BECMG SCT030CB BKN200
cycle: 13

Station Type Date Time Source
LHSM TAF UTC NOAA

Error!

Example: see airport list